sensor_id;sensor_type;location;lat;lon;timestamp;pressure;altitude;pressure_sealevel;temperature;humidity
7297;BME280;40758;54.038;11.684;2022-11-28T00:01:43;101500.56;;;4.60;100.00
7297;BME280;40758;54.038;11.684;2022-11-28T00:04:15;101499.00;;;4.56;100.00
7297;BME280;40758;54.038;11.684;2022-11-28T00:06:51;101500.44;;;4.63;100.00
7297;BME280;40758;54.038;11.684;2022-11-28T00:09:21;101494.97;;;4.66;100.00
7297;BME280;40758;54.038;11.684;2022-11-28T00:11:54;101493.44;;;4.60;100.00
7297;BME280;40758;54.038;11.684;2022-11-28T00:14:24;101497.19;;;4.56;100.00
7297;BME280;40758;54.038;11.684;2022-11-28T00:16:54;101498.56;;;4.65;100.00
7297;BME280;40758;54.038;11.684;2022-11-28T00:19:23;101492.31;;;4.66;100.00
7297;BME280;40758;54.038;11.684;2022-11-28T00:21:53;101487.91;;;4.65;100.00
7297;BME280;40758;54.038;11.684;2022-11-28T00:24:23;101489.78;;;4.63;100.00
7297;BME280;40758;54.038;11.684;2022-11-28T00:26:53;101474.53;;;4.66;100.00
7297;BME280;40758;54.038;11.684;2022-11-28T00:29:22;101473.66;;;4.66;100.00
7297;BME280;40758;54.038;11.684;2022-11-28T00:31:51;101472.09;;;4.62;100.00
7297;BME280;40758;54.038;11.684;2022-11-28T00:34:20;101477.78;;;4.54;100.00
7297;BME280;40758;54.038;11.684;2022-11-28T00:36:50;101476.78;;;4.57;100.00
7297;BME280;40758;54.038;11.684;2022-11-28T00:39:21;101469.84;;;4.53;100.00
7297;BME280;40758;54.038;11.684;2022-11-28T00:41:51;101463.72;;;4.51;100.00
7297;BME280;40758;54.038;11.684;2022-11-28T00:44:20;101463.53;;;4.55;100.00
7297;BME280;40758;54.038;11.684;2022-11-28T00:46:50;101459.06;;;4.56;100.00
7297;BME280;40758;54.038;11.684;2022-11-28T00:49:19;101466.38;;;4.51;100.00
7297;BME280;40758;54.038;11.684;2022-11-28T00:51:49;101453.06;;;4.51;100.00
7297;BME280;40758;54.038;11.684;2022-11-28T00:54:18;101454.53;;;4.58;100.00
7297;BME280;40758;54.038;11.684;2022-11-28T00:56:49;101457.00;;;4.62;100.00
7297;BME280;40758;54.038;11.684;2022-11-28T00:59:18;101449.19;;;4.58;100.00
7297;BME280;40758;54.038;11.684;2022-11-28T01:01:48;101435.84;;;4.59;100.00
7297;BME280;40758;54.038;11.684;2022-11-28T01:04:19;101436.00;;;4.56;100.00
7297;BME280;40758;54.038;11.684;2022-11-28T01:06:53;101438.56;;;4.58;100.00
7297;BME280;40758;54.038;11.684;2022-11-28T01:09:25;101432.47;;;4.56;100.00
7297;BME280;40758;54.038;11.684;2022-11-28T01:11:56;101438.84;;;4.52;100.00
7297;BME280;40758;54.038;11.684;2022-11-28T01:14:25;101433.81;;;4.45;100.00
7297;BME280;40758;54.038;11.684;2022-11-28T01:16:57;101433.53;;;4.52;100.00
7297;BME280;40758;54.038;11.684;2022-11-28T01:19:27;101435.41;;;4.50;100.00
7297;BME280;40758;54.038;11.684;2022-11-28T01:21:56;101439.13;;;4.45;100.00
7297;BME280;40758;54.038;11.684;2022-11-28T01:24:25;101437.50;;;4.43;100.00
7297;BME280;40758;54.038;11.684;2022-11-28T01:26:56;101437.56;;;4.41;100.00
7297;BME280;40758;54.038;11.684;2022-11-28T01:29:25;101441.09;;;4.42;100.00
7297;BME280;40758;54.038;11.684;2022-11-28T01:31:55;101439.28;;;4.42;100.00
7297;BME280;40758;54.038;11.684;2022-11-28T01:34:24;101434.84;;;4.43;100.00
7297;BME280;40758;54.038;11.684;2022-11-28T01:36:53;101432.25;;;4.41;100.00
7297;BME280;40758;54.038;11.684;2022-11-28T01:39:24;101421.59;;;4.41;100.00
7297;BME280;40758;54.038;11.684;2022-11-28T01:42:00;101428.88;;;4.38;100.00
7297;BME280;40758;54.038;11.684;2022-11-28T01:45:07;101420.16;;;4.34;100.00
7297;BME280;40758;54.038;11.684;2022-11-28T01:47:40;101431.06;;;4.28;100.00
7297;BME280;40758;54.038;11.684;2022-11-28T01:50:11;101424.31;;;4.40;100.00
7297;BME280;40758;54.038;11.684;2022-11-28T01:52:48;101421.94;;;4.34;100.00
7297;BME280;40758;54.038;11.684;2022-11-28T01:55:26;101419.22;;;4.35;100.00
7297;BME280;40758;54.038;11.684;2022-11-28T01:58:00;101412.81;;;4.39;100.00
7297;BME280;40758;54.038;11.684;2022-11-28T02:00:29;101415.91;;;4.30;100.00
7297;BME280;40758;54.038;11.684;2022-11-28T02:03:03;101417.50;;;4.34;100.00
7297;BME280;40758;54.038;11.684;2022-11-28T02:05:35;101406.78;;;4.36;100.00
7297;BME280;40758;54.038;11.684;2022-11-28T02:08:05;101415.75;;;4.33;100.00
7297;BME280;40758;54.038;11.684;2022-11-28T02:10:53;101405.75;;;4.38;100.00
7297;BME280;40758;54.038;11.684;2022-11-28T02:13:38;101409.50;;;4.34;100.00
7297;BME280;40758;54.038;11.684;2022-11-28T02:16:31;101405.75;;;4.38;100.00
7297;BME280;40758;54.038;11.684;2022-11-28T02:19:48;101400.59;;;4.35;100.00
7297;BME280;40758;54.038;11.684;2022-11-28T02:22:25;101401.59;;;4.33;100.00
7297;BME280;40758;54.038;11.684;2022-11-28T02:25:29;101397.13;;;4.33;100.00
7297;BME280;40758;54.038;11.684;2022-11-28T02:32:08;101385.78;;;4.30;100.00
7297;BME280;40758;54.038;11.684;2022-11-28T02:34:53;101383.34;;;4.25;100.00
7297;BME280;40758;54.038;11.684;2022-11-28T02:37:36;101379.72;;;4.26;100.00
7297;BME280;40758;54.038;11.684;2022-11-28T02:40:22;101376.44;;;4.21;100.00
7297;BME280;40758;54.038;11.684;2022-11-28T02:43:05;101372.63;;;4.27;100.00
7297;BME280;40758;54.038;11.684;2022-11-28T02:45:51;101369.03;;;4.28;100.00
7297;BME280;40758;54.038;11.684;2022-11-28T02:48:30;101376.09;;;4.29;100.00
7297;BME280;40758;54.038;11.684;2022-11-28T02:51:13;101377.75;;;4.31;100.00
7297;BME280;40758;54.038;11.684;2022-11-28T02:53:47;101377.22;;;4.23;100.00
7297;BME280;40758;54.038;11.684;2022-11-28T02:56:17;101368.97;;;4.29;100.00
7297;BME280;40758;54.038;11.684;2022-11-28T02:58:47;101371.06;;;4.23;100.00
7297;BME280;40758;54.038;11.684;2022-11-28T03:01:28;101366.59;;;4.23;100.00
7297;BME280;40758;54.038;11.684;2022-11-28T03:04:18;101367.41;;;4.25;100.00
7297;BME280;40758;54.038;11.684;2022-11-28T03:07:06;101358.31;;;4.29;100.00
7297;BME280;40758;54.038;11.684;2022-11-28T03:09:59;101353.13;;;4.26;100.00
7297;BME280;40758;54.038;11.684;2022-11-28T03:12:50;101355.88;;;4.25;100.00
7297;BME280;40758;54.038;11.684;2022-11-28T03:15:35;101350.75;;;4.20;100.00
7297;BME280;40758;54.038;11.684;2022-11-28T03:18:18;101355.16;;;4.21;100.00
7297;BME280;40758;54.038;11.684;2022-11-28T03:21:00;101353.59;;;4.17;100.00
7297;BME280;40758;54.038;11.684;2022-11-28T03:23:40;101348.09;;;4.20;100.00
7297;BME280;40758;54.038;11.684;2022-11-28T03:26:17;101340.00;;;4.23;100.00
7297;BME280;40758;54.038;11.684;2022-11-28T03:28:57;101346.41;;;4.19;100.00
7297;BME280;40758;54.038;11.684;2022-11-28T03:31:36;101341.78;;;4.23;100.00
7297;BME280;40758;54.038;11.684;2022-11-28T03:34:13;101340.34;;;4.16;100.00
7297;BME280;40758;54.038;11.684;2022-11-28T03:36:54;101334.81;;;4.20;100.00
7297;BME280;40758;54.038;11.684;2022-11-28T03:39:36;101333.88;;;4.21;100.00
7297;BME280;40758;54.038;11.684;2022-11-28T03:42:10;101335.53;;;4.24;100.00
7297;BME280;40758;54.038;11.684;2022-11-28T03:44:47;101336.81;;;4.15;100.00
7297;BME280;40758;54.038;11.684;2022-11-28T03:47:18;101338.63;;;4.15;100.00
7297;BME280;40758;54.038;11.684;2022-11-28T03:49:55;101334.09;;;4.17;100.00
7297;BME280;40758;54.038;11.684;2022-11-28T03:52:38;101329.72;;;4.16;100.00
7297;BME280;40758;54.038;11.684;2022-11-28T03:55:19;101341.09;;;4.19;100.00
7297;BME280;40758;54.038;11.684;2022-11-28T03:57:56;101328.16;;;4.12;100.00
7297;BME280;40758;54.038;11.684;2022-11-28T04:00:28;101334.97;;;4.17;100.00
7297;BME280;40758;54.038;11.684;2022-11-28T04:03:08;101334.16;;;4.15;100.00
7297;BME280;40758;54.038;11.684;2022-11-28T04:05:44;101330.88;;;4.10;100.00
7297;BME280;40758;54.038;11.684;2022-11-28T04:08:21;101341.66;;;4.07;100.00
7297;BME280;40758;54.038;11.684;2022-11-28T04:10:57;101344.09;;;4.12;100.00
7297;BME280;40758;54.038;11.684;2022-11-28T04:13:36;101339.66;;;4.12;100.00
7297;BME280;40758;54.038;11.684;2022-11-28T04:16:18;101335.25;;;4.11;100.00
7297;BME280;40758;54.038;11.684;2022-11-28T04:18:57;101337.97;;;4.10;100.00
7297;BME280;40758;54.038;11.684;2022-11-28T04:21:32;101327.84;;;4.18;100.00
7297;BME280;40758;54.038;11.684;2022-11-28T04:24:10;101333.59;;;4.08;100.00
7297;BME280;40758;54.038;11.684;2022-11-28T04:26:48;101328.22;;;4.10;100.00
7297;BME280;40758;54.038;11.684;2022-11-28T04:29:25;101331.44;;;4.17;100.00
7297;BME280;40758;54.038;11.684;2022-11-28T04:32:01;101330.56;;;4.16;100.00
7297;BME280;40758;54.038;11.684;2022-11-28T04:34:33;101317.34;;;4.15;100.00
7297;BME280;40758;54.038;11.684;2022-11-28T04:37:09;101325.41;;;4.13;100.00
7297;BME280;40758;54.038;11.684;2022-11-28T04:39:47;101313.06;;;4.12;100.00
7297;BME280;40758;54.038;11.684;2022-11-28T04:42:29;101315.56;;;4.15;100.00
7297;BME280;40758;54.038;11.684;2022-11-28T04:45:07;101323.81;;;4.09;100.00
7297;BME280;40758;54.038;11.684;2022-11-28T04:47:41;101316.94;;;4.05;100.00
7297;BME280;40758;54.038;11.684;2022-11-28T04:50:11;101315.06;;;4.07;100.00
7297;BME280;40758;54.038;11.684;2022-11-28T04:52:49;101318.66;;;4.06;100.00
7297;BME280;40758;54.038;11.684;2022-11-28T04:55:32;101312.53;;;4.04;100.00
7297;BME280;40758;54.038;11.684;2022-11-28T04:58:10;101315.19;;;4.04;100.00
7297;BME280;40758;54.038;11.684;2022-11-28T05:00:42;101308.91;;;4.06;100.00
7297;BME280;40758;54.038;11.684;2022-11-28T05:03:14;101329.44;;;4.03;100.00
7297;BME280;40758;54.038;11.684;2022-11-28T05:05:47;101322.25;;;4.05;100.00
7297;BME280;40758;54.038;11.684;2022-11-28T05:08:19;101323.97;;;4.06;100.00
7297;BME280;40758;54.038;11.684;2022-11-28T05:10:54;101329.44;;;4.03;100.00
7297;BME280;40758;54.038;11.684;2022-11-28T05:13:24;101321.59;;;4.00;100.00
7297;BME280;40758;54.038;11.684;2022-11-28T05:15:58;101331.31;;;4.01;100.00
7297;BME280;40758;54.038;11.684;2022-11-28T05:18:27;101322.38;;;4.02;100.00
7297;BME280;40758;54.038;11.684;2022-11-28T05:21:00;101318.94;;;4.00;100.00
7297;BME280;40758;54.038;11.684;2022-11-28T05:23:30;101321.72;;;3.97;100.00
7297;BME280;40758;54.038;11.684;2022-11-28T05:26:06;101312.03;;;3.96;100.00
7297;BME280;40758;54.038;11.684;2022-11-28T05:28:36;101318.31;;;3.95;100.00
7297;BME280;40758;54.038;11.684;2022-11-28T05:31:05;101315.66;;;3.95;100.00
7297;BME280;40758;54.038;11.684;2022-11-28T05:33:40;101298.84;;;3.94;100.00
7297;BME280;40758;54.038;11.684;2022-11-28T05:36:15;101292.50;;;3.97;100.00
7297;BME280;40758;54.038;11.684;2022-11-28T05:38:47;101294.38;;;3.95;100.00
7297;BME280;40758;54.038;11.684;2022-11-28T05:41:23;101280.00;;;3.99;100.00
7297;BME280;40758;54.038;11.684;2022-11-28T05:43:55;101286.47;;;3.93;100.00
7297;BME280;40758;54.038;11.684;2022-11-28T05:46:26;101282.78;;;3.96;100.00
7297;BME280;40758;54.038;11.684;2022-11-28T05:48:55;101278.44;;;3.95;100.00
7297;BME280;40758;54.038;11.684;2022-11-28T05:51:25;101273.25;;;3.92;100.00
7297;BME280;40758;54.038;11.684;2022-11-28T05:53:58;101279.56;;;3.89;100.00
7297;BME280;40758;54.038;11.684;2022-11-28T05:56:29;101274.16;;;3.91;100.00
7297;BME280;40758;54.038;11.684;2022-11-28T05:58:58;101262.91;;;3.86;100.00
7297;BME280;40758;54.038;11.684;2022-11-28T06:01:29;101270.06;;;3.84;100.00
7297;BME280;40758;54.038;11.684;2022-11-28T06:03:59;101270.81;;;3.87;100.00
7297;BME280;40758;54.038;11.684;2022-11-28T06:06:32;101262.59;;;3.92;100.00
7297;BME280;40758;54.038;11.684;2022-11-28T06:09:04;101270.75;;;3.89;100.00
7297;BME280;40758;54.038;11.684;2022-11-28T06:11:35;101270.53;;;3.93;100.00
7297;BME280;40758;54.038;11.684;2022-11-28T06:14:06;101262.78;;;3.89;100.00
7297;BME280;40758;54.038;11.684;2022-11-28T06:16:39;101275.91;;;3.92;100.00
7297;BME280;40758;54.038;11.684;2022-11-28T06:19:11;101278.72;;;3.89;100.00
7297;BME280;40758;54.038;11.684;2022-11-28T06:21:40;101281.28;;;3.90;100.00
7297;BME280;40758;54.038;11.684;2022-11-28T06:24:10;101281.22;;;3.92;100.00
7297;BME280;40758;54.038;11.684;2022-11-28T06:26:41;101289.69;;;4.00;100.00
7297;BME280;40758;54.038;11.684;2022-11-28T06:29:11;101281.09;;;3.95;100.00
7297;BME280;40758;54.038;11.684;2022-11-28T06:31:41;101287.47;;;3.91;100.00
7297;BME280;40758;54.038;11.684;2022-11-28T06:34:14;101283.88;;;3.92;100.00
7297;BME280;40758;54.038;11.684;2022-11-28T06:36:46;101287.19;;;3.97;100.00
7297;BME280;40758;54.038;11.684;2022-11-28T06:39:20;101280.28;;;3.93;100.00
7297;BME280;40758;54.038;11.684;2022-11-28T06:41:51;101292.50;;;3.97;100.00
7297;BME280;40758;54.038;11.684;2022-11-28T06:44:21;101293.59;;;3.93;100.00
7297;BME280;40758;54.038;11.684;2022-11-28T06:46:53;101295.38;;;3.92;100.00
7297;BME280;40758;54.038;11.684;2022-11-28T06:49:26;101289.34;;;3.89;100.00
7297;BME280;40758;54.038;11.684;2022-11-28T06:51:56;101283.81;;;3.93;100.00
7297;BME280;40758;54.038;11.684;2022-11-28T06:54:27;101284.03;;;3.89;100.00
7297;BME280;40758;54.038;11.684;2022-11-28T06:57:01;101274.09;;;3.92;100.00
7297;BME280;40758;54.038;11.684;2022-11-28T06:59:33;101280.13;;;3.96;100.00
7297;BME280;40758;54.038;11.684;2022-11-28T07:02:03;101277.56;;;3.94;100.00
7297;BME280;40758;54.038;11.684;2022-11-28T07:04:38;101274.03;;;3.94;100.00
7297;BME280;40758;54.038;11.684;2022-11-28T07:07:08;101268.63;;;3.95;100.00
7297;BME280;40758;54.038;11.684;2022-11-28T07:09:43;101270.06;;;4.02;100.00
7297;BME280;40758;54.038;11.684;2022-11-28T07:12:18;101265.78;;;4.00;100.00
7297;BME280;40758;54.038;11.684;2022-11-28T07:14:53;101269.13;;;4.03;100.00
7297;BME280;40758;54.038;11.684;2022-11-28T07:17:41;101261.03;;;4.06;100.00
7297;BME280;40758;54.038;11.684;2022-11-28T07:20:15;101260.88;;;4.10;100.00
7297;BME280;40758;54.038;11.684;2022-11-28T07:22:46;101256.34;;;4.12;100.00
7297;BME280;40758;54.038;11.684;2022-11-28T07:25:19;101265.63;;;4.03;100.00
7297;BME280;40758;54.038;11.684;2022-11-28T07:27:53;101260.81;;;4.11;100.00
7297;BME280;40758;54.038;11.684;2022-11-28T07:30:22;101254.84;;;4.06;100.00
7297;BME280;40758;54.038;11.684;2022-11-28T07:32:52;101241.56;;;4.06;100.00
7297;BME280;40758;54.038;11.684;2022-11-28T07:35:23;101252.19;;;4.06;100.00
7297;BME280;40758;54.038;11.684;2022-11-28T07:37:55;101251.97;;;4.11;100.00
7297;BME280;40758;54.038;11.684;2022-11-28T07:40:39;101246.41;;;4.15;100.00
7297;BME280;40758;54.038;11.684;2022-11-28T07:43:12;101251.09;;;4.10;100.00
7297;BME280;40758;54.038;11.684;2022-11-28T07:45:43;101239.94;;;4.21;100.00
7297;BME280;40758;54.038;11.684;2022-11-28T07:48:27;101246.47;;;4.14;100.00
7297;BME280;40758;54.038;11.684;2022-11-28T07:50:58;101237.44;;;4.18;100.00
7297;BME280;40758;54.038;11.684;2022-11-28T07:53:27;101243.44;;;4.21;100.00
7297;BME280;40758;54.038;11.684;2022-11-28T07:56:02;101245.34;;;4.19;100.00
7297;BME280;40758;54.038;11.684;2022-11-28T07:58:35;101250.50;;;4.22;100.00
7297;BME280;40758;54.038;11.684;2022-11-28T08:01:13;101241.72;;;4.20;100.00
7297;BME280;40758;54.038;11.684;2022-11-28T08:03:46;101241.44;;;4.26;100.00
7297;BME280;40758;54.038;11.684;2022-11-28T08:06:27;101247.72;;;4.25;100.00
7297;BME280;40758;54.038;11.684;2022-11-28T08:09:00;101248.16;;;4.33;100.00
7297;BME280;40758;54.038;11.684;2022-11-28T08:11:31;101248.63;;;4.24;100.00
7297;BME280;40758;54.038;11.684;2022-11-28T08:14:06;101252.22;;;4.23;100.00
7297;BME280;40758;54.038;11.684;2022-11-28T08:16:38;101239.94;;;4.21;100.00
7297;BME280;40758;54.038;11.684;2022-11-28T08:19:15;101236.97;;;4.27;100.00
7297;BME280;40758;54.038;11.684;2022-11-28T08:21:51;101238.00;;;4.24;100.00
7297;BME280;40758;54.038;11.684;2022-11-28T08:24:20;101245.69;;;4.30;100.00
7297;BME280;40758;54.038;11.684;2022-11-28T08:26:51;101240.50;;;4.27;100.00
7297;BME280;40758;54.038;11.684;2022-11-28T08:29:26;101248.63;;;4.24;100.00
7297;BME280;40758;54.038;11.684;2022-11-28T08:31:57;101252.22;;;4.23;100.00
7297;BME280;40758;54.038;11.684;2022-11-28T08:34:28;101255.53;;;4.28;100.00
7297;BME280;40758;54.038;11.684;2022-11-28T08:37:05;101225.63;;;4.23;100.00
7297;BME280;40758;54.038;11.684;2022-11-28T08:39:34;101254.09;;;4.21;100.00
7297;BME280;40758;54.038;11.684;2022-11-28T08:42:04;101248.78;;;4.21;100.00
7297;BME280;40758;54.038;11.684;2022-11-28T08:44:35;101251.06;;;4.29;100.00
7297;BME280;40758;54.038;11.684;2022-11-28T08:47:09;101253.78;;;4.27;100.00
7297;BME280;40758;54.038;11.684;2022-11-28T08:49:42;101242.53;;;4.22;100.00
7297;BME280;40758;54.038;11.684;2022-11-28T08:52:17;101248.41;;;4.29;100.00
7297;BME280;40758;54.038;11.684;2022-11-28T08:54:51;101244.88;;;4.28;100.00
7297;BME280;40758;54.038;11.684;2022-11-28T08:57:26;101259.44;;;4.38;100.00
7297;BME280;40758;54.038;11.684;2022-11-28T08:59:59;101252.50;;;4.36;100.00
7297;BME280;40758;54.038;11.684;2022-11-28T09:02:36;101242.25;;;4.45;100.00
7297;BME280;40758;54.038;11.684;2022-11-28T09:05:07;101247.56;;;4.45;100.00
7297;BME280;40758;54.038;11.684;2022-11-28T09:07:38;101244.91;;;4.45;100.00
7297;BME280;40758;54.038;11.684;2022-11-28T09:10:13;101255.16;;;4.53;100.00
7297;BME280;40758;54.038;11.684;2022-11-28T09:12:42;101246.19;;;4.56;100.00
7297;BME280;40758;54.038;11.684;2022-11-28T09:15:12;101243.66;;;4.53;100.00
7297;BME280;40758;54.038;11.684;2022-11-28T09:17:42;101235.94;;;4.65;100.00
7297;BME280;40758;54.038;11.684;2022-11-28T09:20:13;101227.56;;;4.73;100.00
7297;BME280;40758;54.038;11.684;2022-11-28T09:22:44;101230.66;;;4.64;100.00
7297;BME280;40758;54.038;11.684;2022-11-28T09:25:14;101234.00;;;4.69;100.00
7297;BME280;40758;54.038;11.684;2022-11-28T09:27:44;101228.88;;;4.81;100.00
7297;BME280;40758;54.038;11.684;2022-11-28T09:30:15;101217.53;;;4.78;100.00
7297;BME280;40758;54.038;11.684;2022-11-28T09:32:48;101206.19;;;4.74;100.00
7297;BME280;40758;54.038;11.684;2022-11-28T09:35:24;101215.81;;;4.77;100.00
7297;BME280;40758;54.038;11.684;2022-11-28T09:37:56;101206.03;;;4.77;100.00
7297;BME280;40758;54.038;11.684;2022-11-28T09:40:36;101204.47;;;4.73;100.00
7297;BME280;40758;54.038;11.684;2022-11-28T09:43:15;101199.06;;;4.75;100.00
7297;BME280;40758;54.038;11.684;2022-11-28T09:45:53;101205.16;;;4.77;100.00
7297;BME280;40758;54.038;11.684;2022-11-28T09:48:50;101205.34;;;4.74;100.00
7297;BME280;40758;54.038;11.684;2022-11-28T09:51:40;101204.22;;;4.78;100.00
7297;BME280;40758;54.038;11.684;2022-11-28T09:54:21;101217.38;;;4.81;100.00
7297;BME280;40758;54.038;11.684;2022-11-28T09:56:55;101219.09;;;4.82;100.00
7297;BME280;40758;54.038;11.684;2022-11-28T09:59:29;101210.16;;;4.83;100.00
7297;BME280;40758;54.038;11.684;2022-11-28T10:02:24;101222.84;;;4.78;100.00
7297;BME280;40758;54.038;11.684;2022-11-28T10:05:16;101215.50;;;4.83;100.00
7297;BME280;40758;54.038;11.684;2022-11-28T10:08:11;101218.47;;;4.77;100.00
7297;BME280;40758;54.038;11.684;2022-11-28T10:10:52;101224.50;;;4.80;100.00
7297;BME280;40758;54.038;11.684;2022-11-28T10:13:35;101221.31;;;4.74;100.00
7297;BME280;40758;54.038;11.684;2022-11-28T10:16:35;101226.31;;;4.80;100.00
7297;BME280;40758;54.038;11.684;2022-11-28T10:19:15;101226.44;;;4.77;100.00
7297;BME280;40758;54.038;11.684;2022-11-28T10:22:19;101229.13;;;4.77;100.00
7297;BME280;40758;54.038;11.684;2022-11-28T10:25:05;101209.31;;;4.82;100.00
7297;BME280;40758;54.038;11.684;2022-11-28T10:27:36;101224.41;;;4.82;100.00
7297;BME280;40758;54.038;11.684;2022-11-28T10:30:17;101224.50;;;4.80;100.00
7297;BME280;40758;54.038;11.684;2022-11-28T10:33:00;101222.59;;;4.82;100.00
7297;BME280;40758;54.038;11.684;2022-11-28T10:35:43;101223.47;;;4.83;100.00
7297;BME280;40758;54.038;11.684;2022-11-28T10:38:20;101222.41;;;4.87;100.00
7297;BME280;40758;54.038;11.684;2022-11-28T10:41:03;101213.91;;;4.96;100.00
7297;BME280;40758;54.038;11.684;2022-11-28T10:43:44;101208.97;;;4.88;100.00
7297;BME280;40758;54.038;11.684;2022-11-28T10:46:53;101203.59;;;4.90;100.00
7297;BME280;40758;54.038;11.684;2022-11-28T10:49:39;101199.81;;;4.94;100.00
7297;BME280;40758;54.038;11.684;2022-11-28T10:52:21;101197.31;;;4.91;100.00
7297;BME280;40758;54.038;11.684;2022-11-28T10:55:07;101194.41;;;4.96;100.00
7297;BME280;40758;54.038;11.684;2022-11-28T10:57:54;101189.63;;;5.02;100.00
7297;BME280;40758;54.038;11.684;2022-11-28T11:00:30;101196.50;;;5.06;100.00
7297;BME280;40758;54.038;11.684;2022-11-28T11:03:12;101200.47;;;4.99;100.00
7297;BME280;40758;54.038;11.684;2022-11-28T11:05:44;101202.31;;;4.97;100.00
7297;BME280;40758;54.038;11.684;2022-11-28T11:08:21;101194.16;;;5.00;100.00
7297;BME280;40758;54.038;11.684;2022-11-28T11:10:58;101186.16;;;5.00;100.00
7297;BME280;40758;54.038;11.684;2022-11-28T11:13:54;101184.38;;;5.01;100.00
7297;BME280;40758;54.038;11.684;2022-11-28T11:16:49;101188.50;;;5.06;100.00
7297;BME280;40758;54.038;11.684;2022-11-28T11:19:25;101181.25;;;5.10;100.00
7297;BME280;40758;54.038;11.684;2022-11-28T11:22:02;101180.19;;;5.12;100.00
7297;BME280;40758;54.038;11.684;2022-11-28T11:24:34;101171.25;;;4.98;100.00
7297;BME280;40758;54.038;11.684;2022-11-28T11:27:15;101180.69;;;5.03;100.00
7297;BME280;40758;54.038;11.684;2022-11-28T11:29:48;101184.44;;;5.16;100.00
7297;BME280;40758;54.038;11.684;2022-11-28T11:32:26;101185.78;;;5.08;100.00
7297;BME280;40758;54.038;11.684;2022-11-28T11:34:58;101183.81;;;5.11;100.00
7297;BME280;40758;54.038;11.684;2022-11-28T11:37:33;101177.03;;;5.06;100.00
7297;BME280;40758;54.038;11.684;2022-11-28T11:40:25;101173.31;;;5.08;100.00
7297;BME280;40758;54.038;11.684;2022-11-28T11:42:59;101170.66;;;5.08;100.00
7297;BME280;40758;54.038;11.684;2022-11-28T11:45:36;101171.78;;;5.04;100.00
7297;BME280;40758;54.038;11.684;2022-11-28T11:48:10;101171.91;;;5.01;100.00
7297;BME280;40758;54.038;11.684;2022-11-28T11:50:56;101176.59;;;5.13;100.00
7297;BME280;40758;54.038;11.684;2022-11-28T11:53:26;101174.72;;;5.15;100.00
7297;BME280;40758;54.038;11.684;2022-11-28T11:56:02;101165.00;;;5.14;100.00
7297;BME280;40758;54.038;11.684;2022-11-28T11:58:47;101172.19;;;5.12;100.00
7297;BME280;40758;54.038;11.684;2022-11-28T12:01:20;101174.56;;;5.18;100.00
7297;BME280;40758;54.038;11.684;2022-11-28T12:03:58;101168.38;;;5.18;100.00
7297;BME280;40758;54.038;11.684;2022-11-28T12:06:54;101164.59;;;5.22;100.00
7297;BME280;40758;54.038;11.684;2022-11-28T12:09:34;101158.59;;;5.34;100.00
7297;BME280;40758;54.038;11.684;2022-11-28T12:12:16;101161.06;;;5.21;100.00
7297;BME280;40758;54.038;11.684;2022-11-28T12:14:48;101155.84;;;5.36;100.00
7297;BME280;40758;54.038;11.684;2022-11-28T12:17:36;101149.59;;;5.37;100.00
7297;BME280;40758;54.038;11.684;2022-11-28T12:20:34;101141.25;;;5.43;100.00
7297;BME280;40758;54.038;11.684;2022-11-28T12:23:23;101134.97;;;5.44;100.00
7297;BME280;40758;54.038;11.684;2022-11-28T12:26:06;101134.81;;;5.47;100.00
7297;BME280;40758;54.038;11.684;2022-11-28T12:28:57;101128.88;;;5.57;100.00
7297;BME280;40758;54.038;11.684;2022-11-28T12:31:43;101131.19;;;5.48;100.00
7297;BME280;40758;54.038;11.684;2022-11-28T12:34:31;101118.56;;;5.36;100.00
7297;BME280;40758;54.038;11.684;2022-11-28T12:37:17;101129.56;;;5.45;100.00
7297;BME280;40758;54.038;11.684;2022-11-28T12:40:26;101124.63;;;5.38;100.00
7297;BME280;40758;54.038;11.684;2022-11-28T12:43:15;101121.28;;;5.34;100.00
7297;BME280;40758;54.038;11.684;2022-11-28T12:45:58;101118.91;;;5.29;100.00
7297;BME280;40758;54.038;11.684;2022-11-28T12:48:50;101123.00;;;5.19;100.00
7297;BME280;40758;54.038;11.684;2022-11-28T12:51:34;101123.31;;;5.13;100.00
7297;BME280;40758;54.038;11.684;2022-11-28T12:54:37;101122.47;;;5.13;100.00
7297;BME280;40758;54.038;11.684;2022-11-28T12:57:21;101134.16;;;5.10;100.00
7297;BME280;40758;54.038;11.684;2022-11-28T13:00:04;101125.56;;;5.05;100.00
7297;BME280;40758;54.038;11.684;2022-11-28T13:03:05;101115.50;;;5.10;100.00
7297;BME280;40758;54.038;11.684;2022-11-28T13:05:58;101114.72;;;5.08;100.00
7297;BME280;40758;54.038;11.684;2022-11-28T13:08:54;101110.13;;;5.12;100.00
7297;BME280;40758;54.038;11.684;2022-11-28T13:11:51;101113.38;;;5.17;100.00
7297;BME280;40758;54.038;11.684;2022-11-28T13:14:38;101118.94;;;5.12;100.00
7297;BME280;40758;54.038;11.684;2022-11-28T13:17:31;101115.34;;;5.13;100.00
7297;BME280;40758;54.038;11.684;2022-11-28T13:20:20;101123.59;;;5.09;100.00
7297;BME280;40758;54.038;11.684;2022-11-28T13:23:06;101113.34;;;5.01;100.00
7297;BME280;40758;54.038;11.684;2022-11-28T13:25:57;101110.94;;;4.97;100.00
7297;BME280;40758;54.038;11.684;2022-11-28T13:28:35;101124.25;;;4.97;100.00
7297;BME280;40758;54.038;11.684;2022-11-28T13:31:23;101133.25;;;4.94;100.00
7297;BME280;40758;54.038;11.684;2022-11-28T13:33:58;101125.91;;;4.99;100.00
7297;BME280;40758;54.038;11.684;2022-11-28T13:36:43;101124.16;;;4.98;100.00
7297;BME280;40758;54.038;11.684;2022-11-28T13:39:48;101119.84;;;4.96;100.00
7297;BME280;40758;54.038;11.684;2022-11-28T13:42:34;101132.81;;;4.86;100.00
7297;BME280;40758;54.038;11.684;2022-11-28T13:45:30;101134.63;;;4.85;100.00
7297;BME280;40758;54.038;11.684;2022-11-28T13:48:50;101130.47;;;4.80;100.00